Fabre, Canada
Current Conditions -  °F | °C
As of 1:00 PM on Saturday 22 Nov 2014 (Local Time) from CYXR Reporting Station
Overcast Overcast  
Wind Chill: -4°   Ceiling: 1400
Heat Index:   Visibility: 9mi
Dew Point: -1°   Wind: 12mph
Humidity: 87%   Direction: 230°SW
Pressure: 29.67"   Gusts: 21mph
Location:  47.2°N, 79.37°W
Report Text: CYXR 221800Z AUTO 23010G18KT 9SM OVC014 01/M01 A2967 RMK SLP059
Loading
Personal Weather Stations






























Interactive Weather Map New forecast layout! Learn more

10-Day Weather Forecast

Advertisements
Track Severe Weather on mobile